Time;durP1;ratioP1;P1;durP2;ratioP2;P2;SDS_P1;SDS_P2;PMS_P1;PMS_P2;Temp;Humidity;BMP_temperature;BMP_pressure;BME280_temperature;BME280_humidity;BME280_pressure;Samples;Min_cycle;Max_cycle;Signal;HPM_P1;HPM_P2
2021/06/08 00:01:24;;;;;;;25.33;14.68;;;17.40;95.90;;;;;;5040693;28;20187;-81
2021/06/08 00:03:50;;;;;;;27.55;16.85;;;17.40;96.00;;;;;;5052164;28;20040;-81
2021/06/08 00:06:15;;;;;;;26.65;15.63;;;17.40;96.00;;;;;;5049134;28;20043;-81
2021/06/08 00:08:41;;;;;;;26.65;16.45;;;17.40;96.00;;;;;;5052665;28;20072;-81
2021/06/08 00:11:06;;;;;;;27.95;17.25;;;17.30;96.10;;;;;;5052564;28;20377;-82
2021/06/08 00:13:32;;;;;;;26.58;16.40;;;17.30;96.10;;;;;;5054530;28;20068;-80
2021/06/08 00:15:57;;;;;;;24.85;16.13;;;17.30;96.10;;;;;;5049120;28;20307;-80
2021/06/08 00:18:23;;;;;;;27.05;17.02;;;17.30;96.10;;;;;;5042912;28;20059;-81
2021/06/08 00:20:48;;;;;;;27.20;17.30;;;17.30;96.20;;;;;;5050622;28;20029;-80
2021/06/08 00:23:14;;;;;;;26.08;16.40;;;17.30;96.20;;;;;;5054870;28;20416;-80
2021/06/08 00:25:39;;;;;;;28.90;17.23;;;17.30;96.20;;;;;;5044549;28;20044;-80
2021/06/08 00:28:09;;;;;;;32.50;17.80;;;17.20;96.30;;;;;;5043805;28;20044;-80
2021/06/08 00:30:35;;;;;;;29.00;18.10;;;17.20;96.40;;;;;;5050212;28;20138;-80
2021/06/08 00:33:01;;;;;;;26.27;17.17;;;17.10;96.40;;;;;;5043212;28;20038;-80
2021/06/08 00:35:28;;;;;;;26.77;16.35;;;17.10;96.40;;;;;;5040055;28;20037;-80
2021/06/08 00:37:54;;;;;;;26.25;16.38;;;17.10;96.40;;;;;;5043328;28;20040;-80
2021/06/08 00:40:19;;;;;;;27.13;16.75;;;17.10;96.50;;;;;;5039521;28;20266;-80
2021/06/08 00:42:46;;;;;;;28.50;16.98;;;17.00;96.50;;;;;;5042372;28;20044;-81
2021/06/08 00:45:12;;;;;;;28.23;17.08;;;17.00;96.60;;;;;;5044490;28;20041;-81
2021/06/08 00:47:37;;;;;;;28.75;17.58;;;17.00;96.70;;;;;;5076713;28;20059;-82
2021/06/08 00:50:04;;;;;;;28.63;17.13;;;17.00;96.70;;;;;;5052229;28;20047;-82
2021/06/08 00:52:29;;;;;;;29.80;17.52;;;16.90;96.70;;;;;;5045341;28;20140;-82
2021/06/08 00:54:55;;;;;;;32.17;17.88;;;17.00;96.80;;;;;;5052126;28;20389;-82
2021/06/08 00:57:21;;;;;;;32.70;17.27;;;16.90;96.80;;;;;;5048293;28;20127;-80
2021/06/08 00:59:46;;;;;;;30.33;18.48;;;16.90;96.80;;;;;;5047865;28;20038;-81
2021/06/08 01:02:14;;;;;;;29.27;17.75;;;16.90;96.90;;;;;;5043033;28;20037;-81
2021/06/08 01:04:39;;;;;;;36.35;17.98;;;16.90;96.90;;;;;;5049462;28;20032;-82
2021/06/08 01:07:04;;;;;;;33.97;18.75;;;16.90;97.00;;;;;;5046848;28;20045;-81
2021/06/08 01:09:30;;;;;;;33.30;19.30;;;16.90;97.00;;;;;;5039577;28;20061;-81
2021/06/08 01:11:55;;;;;;;35.70;20.40;;;16.90;97.10;;;;;;5047155;28;20087;-82
2021/06/08 01:14:21;;;;;;;33.40;19.98;;;16.80;97.10;;;;;;5048275;28;20036;-80
2021/06/08 01:16:46;;;;;;;32.88;20.67;;;16.90;97.10;;;;;;5045627;28;20274;-81
2021/06/08 01:19:12;;;;;;;38.20;20.45;;;16.80;97.10;;;;;;5053421;28;20060;-80
2021/06/08 01:21:38;;;;;;;32.88;19.73;;;16.80;97.10;;;;;;5072023;28;20047;-81
2021/06/08 01:24:04;;;;;;;42.50;22.58;;;16.80;97.20;;;;;;5074171;28;20032;-80
2021/06/08 01:26:30;;;;;;;37.08;20.45;;;16.80;97.20;;;;;;5051727;28;20372;-80
2021/06/08 01:28:58;;;;;;;36.33;20.05;;;16.80;97.20;;;;;;5047126;28;20041;-81
2021/06/08 01:31:26;;;;;;;36.38;20.58;;;16.80;97.20;;;;;;5064755;28;20041;-80
2021/06/08 01:33:52;;;;;;;33.90;20.52;;;16.80;97.20;;;;;;5041399;28;20042;-82
2021/06/08 01:36:23;;;;;;;33.17;20.52;;;16.70;97.20;;;;;;5040154;28;20057;-81
2021/06/08 01:38:50;;;;;;;36.72;21.98;;;16.70;97.30;;;;;;5039600;28;20045;-81
2021/06/08 01:41:19;;;;;;;38.38;22.00;;;16.70;97.30;;;;;;5049928;28;21900;-81
2021/06/08 01:43:45;;;;;;;40.28;22.38;;;16.70;97.40;;;;;;5082316;28;20071;-81
2021/06/08 01:46:11;;;;;;;33.72;21.13;;;16.60;97.40;;;;;;5046255;28;20034;-81
2021/06/08 01:48:37;;;;;;;43.58;23.85;;;16.60;97.40;;;;;;5071804;28;20401;-81
2021/06/08 01:51:36;;;;;;;39.72;22.88;;;16.60;97.50;;;;;;5039374;28;20428;-81
2021/06/08 01:54:29;;;;;;;37.63;22.95;;;16.60;97.50;;;;;;5027365;28;20036;-80
2021/06/08 01:57:09;;;;;;;42.20;23.88;;;16.60;97.60;;;;;;5044697;28;20124;-81
2021/06/08 01:59:45;;;;;;;40.38;21.98;;;16.50;97.70;;;;;;5042081;28;20057;-81
2021/06/08 02:02:35;;;;;;;37.50;22.45;;;16.50;97.70;;;;;;5076881;28;20048;-81
2021/06/08 02:05:28;;;;;;;40.30;23.52;;;16.50;97.70;;;;;;5045136;28;20044;-81
2021/06/08 02:08:05;;;;;;;44.05;23.65;;;16.50;97.90;;;;;;5044747;28;20049;-81
2021/06/08 02:11:15;;;;;;;42.90;23.55;;;16.50;97.70;;;;;;5051215;28;20422;-81
2021/06/08 02:14:01;;;;;;;40.97;24.40;;;16.60;97.70;;;;;;4999841;28;20048;-80
2021/06/08 02:16:33;;;;;;;43.88;24.67;;;16.60;97.70;;;;;;4993383;28;20041;-82
2021/06/08 02:18:59;;;;;;;42.25;23.15;;;16.50;97.70;;;;;;5026782;28;20084;-81
2021/06/08 02:21:36;;;;;;;44.63;23.75;;;16.50;97.70;;;;;;5046529;28;20075;-81
2021/06/08 02:24:03;;;;;;;41.15;22.80;;;16.50;97.80;;;;;;5050675;28;20277;-81
2021/06/08 02:26:30;;;;;;;40.85;23.30;;;16.50;97.80;;;;;;5042336;28;20053;-82
2021/06/08 02:28:56;;;;;;;43.63;22.40;;;16.50;97.80;;;;;;5040676;28;20060;-82
2021/06/08 02:31:24;;;;;;;45.65;23.92;;;16.50;97.80;;;;;;5077132;28;20037;-80
2021/06/08 02:33:51;;;;;;;41.78;23.65;;;16.50;97.90;;;;;;5085103;28;20048;-81
2021/06/08 02:36:17;;;;;;;43.35;22.52;;;16.50;97.90;;;;;;5058503;28;20044;-83
2021/06/08 02:38:44;;;;;;;40.30;22.95;;;16.50;97.80;;;;;;5043637;28;20159;-82
2021/06/08 02:41:10;;;;;;;42.28;22.83;;;16.50;97.90;;;;;;5077612;28;20033;-81
2021/06/08 02:43:38;;;;;;;39.10;23.70;;;16.50;97.90;;;;;;5037106;28;20037;-80
2021/06/08 02:46:06;;;;;;;45.15;22.63;;;16.50;97.90;;;;;;5074192;28;20084;-80
2021/06/08 02:48:32;;;;;;;40.03;22.40;;;16.50;98.00;;;;;;5078481;28;20073;-80
2021/06/08 02:50:58;;;;;;;42.58;23.80;;;16.50;98.00;;;;;;5057573;28;20049;-80
2021/06/08 02:53:25;;;;;;;39.95;23.27;;;16.50;98.00;;;;;;5076601;28;20361;-80
2021/06/08 02:55:53;;;;;;;42.42;22.70;;;16.50;98.00;;;;;;5048382;28;20323;-80
2021/06/08 02:58:20;;;;;;;38.83;22.42;;;16.50;98.00;;;;;;5089678;28;20117;-80
2021/06/08 03:00:46;;;;;;;38.70;22.20;;;16.50;98.00;;;;;;5042531;28;20068;-80
2021/06/08 03:03:16;;;;;;;37.83;23.10;;;16.50;97.90;;;;;;5037688;28;20052;-82
2021/06/08 03:06:03;;;;;;;44.72;23.90;;;16.50;98.00;;;;;;5070381;28;20116;-83
2021/06/08 03:08:58;;;;;;;42.47;23.25;;;16.60;98.00;;;;;;5042897;28;20043;-82
2021/06/08 03:11:29;;;;;;;43.15;23.00;;;16.60;98.00;;;;;;5040645;28;20400;-82
2021/06/08 03:13:56;;;;;;;45.55;22.83;;;16.60;98.00;;;;;;5046321;28;20045;-82
2021/06/08 03:16:24;;;;;;;36.30;22.48;;;16.60;98.00;;;;;;5042053;28;20056;-83
2021/06/08 03:18:52;;;;;;;40.42;22.92;;;16.60;97.90;;;;;;5047482;28;20051;-83
2021/06/08 03:21:23;;;;;;;43.75;22.52;;;16.60;98.00;;;;;;5041590;28;20056;-82
2021/06/08 03:23:54;;;;;;;35.70;21.02;;;16.60;98.00;;;;;;5043130;28;20068;-82
2021/06/08 03:26:21;;;;;;;42.00;22.63;;;16.60;98.00;;;;;;5075060;28;20304;-82
2021/06/08 03:28:49;;;;;;;36.33;21.58;;;16.70;98.00;;;;;;5041272;28;20128;-82
2021/06/08 03:31:16;;;;;;;38.80;23.38;;;16.70;97.90;;;;;;5085777;28;20340;-83
2021/06/08 03:33:42;;;;;;;40.80;23.33;;;16.80;97.90;;;;;;5038060;28;20320;-82
2021/06/08 03:36:09;;;;;;;36.60;21.15;;;16.80;97.80;;;;;;5075008;28;20560;-82
2021/06/08 03:38:37;;;;;;;38.60;23.02;;;16.80;97.80;;;;;;5036643;28;20308;-82
2021/06/08 03:41:03;;;;;;;38.47;21.33;;;16.90;97.80;;;;;;5052629;28;20037;-82
2021/06/08 03:43:29;;;;;;;35.78;21.40;;;16.90;97.70;;;;;;5044678;28;20561;-82
2021/06/08 03:45:55;;;;;;;35.05;21.95;;;16.90;97.70;;;;;;5042237;28;20068;-82
2021/06/08 03:48:20;;;;;;;36.35;21.50;;;16.90;97.70;;;;;;5077119;28;20045;-82
2021/06/08 03:50:49;;;;;;;36.13;21.13;;;17.00;97.70;;;;;;5048455;28;20408;-80
2021/06/08 03:53:15;;;;;;;33.13;21.38;;;17.00;97.50;;;;;;5050836;28;20075;-82
2021/06/08 03:55:41;;;;;;;39.78;22.85;;;17.00;97.50;;;;;;5086804;28;20036;-83
2021/06/08 03:58:13;;;;;;;35.60;21.58;;;17.10;97.40;;;;;;5043193;28;20045;-83
2021/06/08 04:00:40;;;;;;;37.33;21.43;;;17.10;97.30;;;;;;5082043;28;20040;-82
2021/06/08 04:03:08;;;;;;;32.58;20.50;;;17.10;97.30;;;;;;5053829;28;20558;-82
2021/06/08 04:05:34;;;;;;;36.45;21.20;;;17.10;97.30;;;;;;5047045;28;20392;-82
2021/06/08 04:07:59;;;;;;;33.45;20.15;;;17.20;97.30;;;;;;5052218;28;20037;-82
2021/06/08 04:10:25;;;;;;;40.03;21.55;;;17.20;97.40;;;;;;5049016;28;20045;-82
2021/06/08 04:12:51;;;;;;;33.20;20.75;;;17.20;97.30;;;;;;5082558;28;20041;-82
2021/06/08 04:15:19;;;;;;;36.03;23.02;;;17.30;97.10;;;;;;5051835;28;20045;-81
2021/06/08 04:17:45;;;;;;;36.75;21.23;;;17.30;97.10;;;;;;5049368;28;20084;-82
2021/06/08 04:20:12;;;;;;;33.00;20.15;;;17.30;97.10;;;;;;5042150;28;20072;-82
2021/06/08 04:22:39;;;;;;;33.10;19.88;;;17.40;97.00;;;;;;5081930;28;20091;-82
2021/06/08 04:25:08;;;;;;;32.25;19.95;;;17.40;96.90;;;;;;5047160;28;20033;-82
2021/06/08 04:27:35;;;;;;;33.35;19.15;;;17.40;96.80;;;;;;5047483;28;20124;-81
2021/06/08 04:30:01;;;;;;;30.33;18.48;;;17.50;96.80;;;;;;5041899;28;20378;-81
2021/06/08 04:32:26;;;;;;;32.05;18.90;;;17.50;96.70;;;;;;5054317;28;20144;-82
2021/06/08 04:34:54;;;;;;;30.30;19.08;;;17.50;96.60;;;;;;5041285;28;20048;-81
2021/06/08 04:37:21;;;;;;;34.15;20.67;;;17.50;96.60;;;;;;5041832;28;20044;-81
2021/06/08 04:39:47;;;;;;;28.98;18.90;;;17.50;96.50;;;;;;5079748;28;20080;-82
2021/06/08 04:42:15;;;;;;;34.88;19.10;;;17.50;96.60;;;;;;5054325;28;20032;-80
2021/06/08 04:44:43;;;;;;;26.65;17.20;;;17.60;96.70;;;;;;5046071;28;20125;-81
2021/06/08 04:47:10;;;;;;;29.27;19.75;;;17.60;96.70;;;;;;5081792;28;20102;-81
2021/06/08 04:49:36;;;;;;;30.75;18.58;;;17.70;96.40;;;;;;5061424;28;20412;-82
2021/06/08 04:52:03;;;;;;;30.48;19.27;;;17.70;96.30;;;;;;5053879;28;20120;-83
2021/06/08 04:54:28;;;;;;;29.65;19.45;;;17.80;96.40;;;;;;5046577;28;20047;-85
2021/06/08 04:56:54;;;;;;;31.70;19.70;;;17.80;96.20;;;;;;5044458;28;20040;-82
2021/06/08 04:59:35;;;;;;;36.80;21.17;;;17.70;96.30;;;;;;5055434;28;20029;-82
2021/06/08 05:02:09;;;;;;;38.25;21.40;;;17.60;96.40;;;;;;5085290;28;20040;-80
2021/06/08 05:04:39;;;;;;;36.63;21.50;;;17.70;96.20;;;;;;5051750;28;20347;-82
2021/06/08 05:07:07;;;;;;;37.10;21.65;;;17.70;96.40;;;;;;5078477;28;20037;-81
2021/06/08 05:09:38;;;;;;;36.25;21.50;;;17.60;96.30;;;;;;5053279;28;20045;-85
2021/06/08 05:12:07;;;;;;;34.85;21.73;;;17.60;96.60;;;;;;5070598;28;20098;-82
2021/06/08 05:14:34;;;;;;;38.67;22.77;;;17.60;96.70;;;;;;5044408;28;20094;-82
2021/06/08 05:17:02;;;;;;;43.42;24.00;;;17.60;96.80;;;;;;5057984;28;20037;-84
2021/06/08 05:19:29;;;;;;;39.22;24.80;;;17.50;97.00;;;;;;5036236;28;20075;-82
2021/06/08 05:21:55;;;;;;;38.92;23.50;;;17.50;97.00;;;;;;5046713;28;20360;-82
2021/06/08 05:24:23;;;;;;;42.53;24.15;;;17.60;97.00;;;;;;5046168;28;20037;-83
2021/06/08 05:26:58;;;;;;;39.72;23.92;;;17.60;97.00;;;;;;5061108;28;20331;-91
2021/06/08 05:29:24;;;;;;;40.72;22.88;;;17.70;96.80;;;;;;5081323;28;20329;-83
2021/06/08 05:31:50;;;;;;;37.90;23.83;;;17.70;96.70;;;;;;5048993;28;20405;-82
2021/06/08 05:34:20;;;;;;;38.80;22.83;;;17.80;96.80;;;;;;5048076;28;20056;-83
2021/06/08 05:36:46;;;;;;;43.40;25.23;;;17.90;96.80;;;;;;5081826;28;20048;-84
2021/06/08 05:39:12;;;;;;;40.47;25.77;;;17.90;96.80;;;;;;5034732;28;20037;-83
2021/06/08 05:41:38;;;;;;;41.50;25.23;;;18.00;96.70;;;;;;5074200;28;20410;-83
2021/06/08 05:44:05;;;;;;;38.65;24.50;;;18.10;96.50;;;;;;5077640;28;20116;-82
2021/06/08 05:46:37;;;;;;;43.60;25.98;;;18.20;96.20;;;;;;5051821;28;20047;-82
2021/06/08 05:49:05;;;;;;;42.13;25.73;;;18.20;96.20;;;;;;5055273;28;20400;-83
2021/06/08 05:51:32;;;;;;;43.72;25.27;;;18.30;96.10;;;;;;5054970;28;20044;-84
2021/06/08 05:53:59;;;;;;;40.75;25.27;;;18.30;96.20;;;;;;5054869;28;20136;-82
2021/06/08 05:56:30;;;;;;;38.42;23.65;;;18.30;96.10;;;;;;5055262;28;20033;-82
2021/06/08 05:58:56;;;;;;;42.60;24.65;;;18.30;96.00;;;;;;5054312;28;20041;-84
2021/06/08 06:01:22;;;;;;;44.65;25.55;;;18.30;96.00;;;;;;5040478;28;20053;-83
2021/06/08 06:03:49;;;;;;;39.35;23.77;;;18.30;96.20;;;;;;5042446;28;20496;-83
2021/06/08 06:06:15;;;;;;;36.45;24.30;;;18.30;96.00;;;;;;5035320;28;20150;-84
2021/06/08 06:08:41;;;;;;;38.42;23.40;;;18.30;96.00;;;;;;5046169;28;20041;-84
2021/06/08 06:11:08;;;;;;;42.53;24.50;;;18.40;96.10;;;;;;5044977;28;20102;-81
2021/06/08 06:13:38;;;;;;;38.17;24.33;;;18.40;96.00;;;;;;5039396;28;20087;-82
2021/06/08 06:16:06;;;;;;;42.40;24.73;;;18.40;96.20;;;;;;5044563;28;20052;-82
2021/06/08 06:18:32;;;;;;;36.08;22.77;;;18.40;96.00;;;;;;5087767;28;20106;-83
2021/06/08 06:20:58;;;;;;;37.30;22.90;;;18.40;96.30;;;;;;5047015;28;20079;-83
2021/06/08 06:23:25;;;;;;;34.83;23.58;;;18.50;95.90;;;;;;5034825;28;20431;-82
2021/06/08 06:25:52;;;;;;;33.85;23.70;;;18.60;95.70;;;;;;5039169;28;20033;-83
2021/06/08 06:28:19;;;;;;;40.20;23.55;;;18.60;95.70;;;;;;5052931;28;20095;-83
2021/06/08 06:30:45;;;;;;;37.53;24.70;;;18.70;95.80;;;;;;5071623;28;20076;-83
2021/06/08 06:33:11;;;;;;;34.70;23.48;;;18.80;95.60;;;;;;5046762;28;20037;-83
2021/06/08 06:35:37;;;;;;;38.97;22.92;;;18.90;95.40;;;;;;5052886;28;20610;-84
2021/06/08 06:38:04;;;;;;;37.78;22.70;;;19.00;95.10;;;;;;5042406;28;20092;-83
2021/06/08 06:40:31;;;;;;;31.65;22.23;;;19.10;94.90;;;;;;5046037;28;20129;-82
2021/06/08 06:43:02;;;;;;;34.83;22.48;;;19.10;94.90;;;;;;5033793;28;20050;-85
2021/06/08 06:45:30;;;;;;;34.63;22.98;;;19.20;95.10;;;;;;5046981;28;20037;-82
2021/06/08 06:48:02;;;;;;;33.58;22.30;;;19.20;94.90;;;;;;5083991;28;20045;-83
2021/06/08 06:50:32;;;;;;;37.45;24.00;;;19.30;94.70;;;;;;5066746;28;20044;-81
2021/06/08 06:52:57;;;;;;;36.10;22.98;;;19.40;94.70;;;;;;5043152;28;20041;-85
2021/06/08 06:55:25;;;;;;;36.40;23.38;;;19.40;94.50;;;;;;5049850;28;20048;-84
2021/06/08 06:57:56;;;;;;;34.28;23.55;;;19.40;94.50;;;;;;5043036;28;20482;-81
2021/06/08 07:00:22;;;;;;;35.60;23.88;;;19.50;94.60;;;;;;5080071;28;20072;-83
2021/06/08 07:02:49;;;;;;;38.90;24.48;;;19.50;94.40;;;;;;5041152;28;20037;-83
2021/06/08 07:05:18;;;;;;;33.15;23.05;;;19.60;94.70;;;;;;5046021;28;20134;-84
2021/06/08 07:07:44;;;;;;;33.95;23.95;;;19.60;94.20;;;;;;5047463;28;20434;-83
2021/06/08 07:10:13;;;;;;;35.20;22.17;;;19.80;93.90;;;;;;5052860;28;20025;-84
2021/06/08 07:12:40;;;;;;;32.20;23.23;;;19.90;94.20;;;;;;5043514;28;20087;-83
2021/06/08 07:15:09;;;;;;;33.60;22.48;;;20.00;93.60;;;;;;5077850;28;20409;-84
2021/06/08 07:17:34;;;;;;;35.15;24.55;;;20.10;93.60;;;;;;5045392;28;20590;-83
2021/06/08 07:20:01;;;;;;;32.53;23.42;;;20.10;93.20;;;;;;5049574;28;20029;-81
2021/06/08 07:22:28;;;;;;;34.83;23.80;;;20.10;93.20;;;;;;5042348;28;20119;-83
2021/06/08 07:24:53;;;;;;;29.98;22.92;;;20.20;93.30;;;;;;5052045;28;20045;-83
2021/06/08 07:27:19;;;;;;;38.78;24.95;;;20.10;93.20;;;;;;5039226;28;20041;-82
2021/06/08 07:29:45;;;;;;;36.72;26.38;;;20.10;93.60;;;;;;5038599;28;20112;-82
2021/06/08 07:32:23;;;;;;;36.92;25.35;;;20.20;93.30;;;;;;5043057;28;20044;-81
2021/06/08 07:35:07;;;;;;;41.25;27.65;;;20.20;93.20;;;;;;5046054;28;20096;-81
2021/06/08 07:37:35;;;;;;;35.00;26.38;;;20.20;93.00;;;;;;5051333;28;20072;-84
2021/06/08 07:40:12;;;;;;;39.63;28.63;;;20.30;93.40;;;;;;5055548;28;20037;-85
2021/06/08 07:42:39;;;;;;;45.53;28.60;;;20.30;93.00;;;;;;5055415;28;20051;-86
2021/06/08 07:45:10;;;;;;;34.50;26.58;;;20.40;93.10;;;;;;5077417;28;20037;-86
2021/06/08 07:47:36;;;;;;;36.28;26.13;;;20.50;92.90;;;;;;5037786;28;20042;-84
2021/06/08 07:50:04;;;;;;;40.25;26.10;;;20.60;92.50;;;;;;5047286;28;20044;-82
2021/06/08 07:52:31;;;;;;;34.97;25.75;;;20.70;92.60;;;;;;5039515;28;20427;-83
2021/06/08 07:54:57;;;;;;;31.50;24.25;;;20.80;92.40;;;;;;5054652;28;20039;-82
2021/06/08 07:57:23;;;;;;;38.47;24.08;;;20.80;92.30;;;;;;5045411;28;20550;-85
2021/06/08 07:59:50;;;;;;;31.13;22.98;;;20.80;92.20;;;;;;5078155;28;20052;-84
2021/06/08 08:02:20;;;;;;;35.17;22.83;;;20.80;92.40;;;;;;5043837;28;20036;-84
2021/06/08 08:04:52;;;;;;;33.13;22.92;;;20.90;92.40;;;;;;5070756;28;20148;-85
2021/06/08 08:07:23;;;;;;;33.13;23.00;;;21.00;91.80;;;;;;5043073;28;20037;-83
2021/06/08 08:09:55;;;;;;;29.90;20.73;;;21.10;91.60;;;;;;5083915;28;20100;-82
2021/06/08 08:12:22;;;;;;;32.85;23.17;;;21.20;91.30;;;;;;5044968;28;20048;-84
2021/06/08 08:14:49;;;;;;;30.42;22.00;;;21.20;91.60;;;;;;5052417;28;20044;-82
2021/06/08 08:17:15;;;;;;;31.98;23.23;;;21.30;91.60;;;;;;5060661;28;20063;-83
2021/06/08 08:19:41;;;;;;;39.15;24.15;;;21.40;91.40;;;;;;5068044;28;20072;-84
2021/06/08 08:22:08;;;;;;;37.65;23.10;;;21.50;91.10;;;;;;5057745;28;20281;-84
2021/06/08 08:24:34;;;;;;;32.28;22.88;;;21.70;91.00;;;;;;5046572;28;20104;-83
2021/06/08 08:27:03;;;;;;;33.35;23.02;;;21.80;90.60;;;;;;5047134;28;20094;-82
2021/06/08 08:29:28;;;;;;;31.98;23.70;;;21.80;90.10;;;;;;5055939;28;20040;-83
2021/06/08 08:31:54;;;;;;;33.38;22.38;;;21.80;90.60;;;;;;5050897;28;20033;-83
2021/06/08 08:34:20;;;;;;;31.23;22.48;;;21.80;90.60;;;;;;5034461;28;20048;-83
2021/06/08 08:36:45;;;;;;;32.05;21.38;;;21.90;90.80;;;;;;5036482;28;20365;-84
2021/06/08 08:39:11;;;;;;;30.17;21.88;;;21.90;90.30;;;;;;5035677;28;20389;-84
2021/06/08 08:41:38;;;;;;;29.55;20.73;;;21.90;90.60;;;;;;5076923;28;20052;-84
2021/06/08 08:44:06;;;;;;;27.80;20.75;;;22.00;91.10;;;;;;5080116;28;20068;-81
2021/06/08 08:46:35;;;;;;;31.20;20.98;;;22.10;90.30;;;;;;5076699;28;20144;-82
2021/06/08 08:49:00;;;;;;;31.38;20.60;;;22.10;90.00;;;;;;5036951;28;20052;-81
2021/06/08 08:51:28;;;;;;;29.13;20.92;;;22.00;90.30;;;;;;5046563;28;20109;-82
2021/06/08 08:53:55;;;;;;;26.67;19.77;;;22.10;89.50;;;;;;5040678;28;20048;-82
2021/06/08 08:56:32;;;;;;;26.25;19.80;;;22.20;89.80;;;;;;5067787;28;20270;-83
2021/06/08 08:59:06;;;;;;;33.70;19.38;;;22.20;90.00;;;;;;5048788;28;20132;-83
2021/06/08 09:01:34;;;;;;;26.13;19.48;;;22.40;90.40;;;;;;5080425;28;20037;-83
2021/06/08 09:04:01;;;;;;;28.33;19.40;;;22.50;89.30;;;;;;5067290;28;20068;-85
2021/06/08 09:06:27;;;;;;;23.73;18.02;;;22.60;90.00;;;;;;5044916;28;20156;-82
2021/06/08 09:08:52;;;;;;;23.90;17.88;;;22.70;88.90;;;;;;5054873;28;20041;-83
2021/06/08 09:11:19;;;;;;;25.58;18.15;;;22.80;87.90;;;;;;5054345;28;20044;-83
2021/06/08 09:13:45;;;;;;;22.67;18.13;;;23.00;87.40;;;;;;5054851;28;20250;-83
2021/06/08 09:16:14;;;;;;;24.40;17.88;;;23.10;87.90;;;;;;5055912;28;20127;-83
2021/06/08 09:18:40;;;;;;;26.70;18.77;;;23.10;88.20;;;;;;5046837;28;20126;-83
2021/06/08 09:21:16;;;;;;;22.52;17.48;;;23.10;88.70;;;;;;5039963;28;20462;-82
2021/06/08 09:23:42;;;;;;;27.35;17.73;;;23.10;88.20;;;;;;5060861;28;20282;-83
2021/06/08 09:26:08;;;;;;;24.40;17.67;;;23.20;87.40;;;;;;5047842;28;20034;-83
2021/06/08 09:28:36;;;;;;;26.17;18.50;;;23.30;87.20;;;;;;5077629;28;20041;-82
2021/06/08 09:31:26;;;;;;;26.85;17.77;;;23.40;86.80;;;;;;5035790;28;20404;-82
2021/06/08 09:33:54;;;;;;;23.83;17.05;;;23.50;86.70;;;;;;5033155;28;20040;-83
2021/06/08 09:36:22;;;;;;;26.58;18.58;;;23.60;87.10;;;;;;5042339;28;20156;-83
2021/06/08 09:38:53;;;;;;;24.92;17.42;;;23.70;86.60;;;;;;5067142;28;20060;-84
2021/06/08 09:41:26;;;;;;;23.30;17.42;;;23.90;85.50;;;;;;5087185;28;20151;-82
2021/06/08 09:44:07;;;;;;;26.10;17.58;;;23.90;88.20;;;;;;5054216;28;20107;-83
2021/06/08 09:46:49;;;;;;;23.17;16.80;;;24.10;86.70;;;;;;5054263;28;20048;-84
2021/06/08 09:49:39;;;;;;;23.25;17.10;;;24.20;87.50;;;;;;5053716;28;20033;-83
2021/06/08 09:52:07;;;;;;;20.50;15.73;;;24.30;85.20;;;;;;5051157;28;20048;-83
2021/06/08 09:54:37;;;;;;;20.48;15.63;;;24.50;84.10;;;;;;5054180;28;20091;-82
2021/06/08 09:57:24;;;;;;;22.65;15.30;;;24.60;83.60;;;;;;5053704;28;20359;-83
2021/06/08 10:00:00;;;;;;;20.27;15.23;;;24.80;84.60;;;;;;5053596;28;20124;-83
2021/06/08 10:02:29;;;;;;;18.58;15.35;;;24.90;84.40;;;;;;5053985;28;20043;-83
2021/06/08 10:05:22;;;;;;;21.33;16.92;;;25.10;82.40;;;;;;5043687;28;20432;-83
2021/06/08 10:07:52;;;;;;;22.40;15.13;;;25.20;80.20;;;;;;5066408;28;20112;-84
2021/06/08 10:10:21;;;;;;;25.38;17.08;;;25.20;81.60;;;;;;5037258;28;20120;-83
2021/06/08 10:13:00;;;;;;;20.13;14.80;;;25.30;81.70;;;;;;5041641;28;20060;-82
2021/06/08 10:15:28;;;;;;;19.83;15.07;;;25.40;81.90;;;;;;5042144;28;20296;-81
2021/06/08 10:18:08;;;;;;;18.85;15.05;;;25.50;83.50;;;;;;5040788;28;20040;-82
2021/06/08 10:20:37;;;;;;;20.98;15.93;;;25.70;83.30;;;;;;5039336;28;20033;-82
2021/06/08 10:23:27;;;;;;;21.30;16.20;;;25.80;81.50;;;;;;5034485;28;20048;-82
2021/06/08 10:25:55;;;;;;;20.00;14.25;;;25.90;81.30;;;;;;5053273;28;20463;-84
2021/06/08 10:28:21;;;;;;;18.25;12.77;;;25.90;79.20;;;;;;5052258;28;20051;-87
2021/06/08 10:30:48;;;;;;;16.70;12.93;;;25.90;78.80;;;;;;5042515;28;20116;-84
2021/06/08 10:33:14;;;;;;;19.27;12.70;;;25.90;80.90;;;;;;5050073;28;20048;-84
2021/06/08 10:35:41;;;;;;;19.70;12.43;;;26.00;81.20;;;;;;5072370;28;20329;-83
2021/06/08 10:38:08;;;;;;;16.77;13.05;;;26.20;79.20;;;;;;5068562;28;20056;-83
2021/06/08 10:40:36;;;;;;;18.02;12.40;;;26.30;77.40;;;;;;5082971;28;20086;-85
2021/06/08 10:43:03;;;;;;;20.75;15.43;;;26.40;78.90;;;;;;5039888;28;20588;-85
2021/06/08 10:45:39;;;;;;;21.13;14.95;;;26.60;79.60;;;;;;5041796;28;20049;-85
2021/06/08 10:48:17;;;;;;;20.15;15.35;;;26.70;78.30;;;;;;5070973;28;20056;-84
2021/06/08 10:50:48;;;;;;;16.40;12.93;;;26.70;79.20;;;;;;5044663;28;20051;-84
2021/06/08 10:53:31;;;;;;;20.42;13.95;;;26.70;79.40;;;;;;5077710;28;20045;-84
2021/06/08 10:55:59;;;;;;;20.17;15.30;;;26.70;77.40;;;;;;5046524;28;20039;-84
2021/06/08 10:58:51;;;;;;;14.45;11.80;;;26.70;78.60;;;;;;5042100;28;20120;-83
2021/06/08 11:01:35;;;;;;;16.00;12.65;;;26.90;77.60;;;;;;5051086;28;20114;-84
2021/06/08 11:04:08;;;;;;;18.40;12.80;;;27.00;77.20;;;;;;5045417;28;20041;-84
2021/06/08 11:06:40;;;;;;;15.63;12.23;;;27.10;78.50;;;;;;5080064;28;20036;-84
2021/06/08 11:09:16;;;;;;;16.33;12.20;;;27.00;75.40;;;;;;5050736;28;20419;-85
2021/06/08 11:11:51;;;;;;;15.88;11.73;;;27.10;76.40;;;;;;5065729;28;20041;-84
2021/06/08 11:17:15;;;;;;;15.90;11.32;;;27.30;77.70;;;;;;5061109;28;20342;-82
2021/06/08 11:19:52;;;;;;;19.30;13.57;;;27.20;74.80;;;;;;5057002;28;20435;-83
2021/06/08 11:22:21;;;;;;;18.70;13.18;;;27.20;74.20;;;;;;5054036;28;20404;-85
2021/06/08 11:24:49;;;;;;;16.17;11.90;;;27.20;76.30;;;;;;5042460;28;20076;-84
2021/06/08 11:27:17;;;;;;;14.00;11.15;;;27.30;76.20;;;;;;5062686;28;20025;-84
2021/06/08 11:29:50;;;;;;;17.17;12.10;;;27.30;75.40;;;;;;5063751;28;20521;-85
2021/06/08 11:32:31;;;;;;;17.13;10.85;;;27.40;75.10;;;;;;5054611;28;20077;-84
2021/06/08 11:35:32;;;;;;;16.10;12.43;;;27.50;75.70;;;;;;5061452;28;20040;-85
2021/06/08 11:38:03;;;;;;;14.82;11.85;;;27.60;74.30;;;;;;5048612;28;20072;-84
2021/06/08 11:43:05;;;;;;;15.77;11.93;;;28.00;74.10;;;;;;5058806;28;20044;-84
2021/06/08 11:45:34;;;;;;;12.60;9.23;;;28.10;74.30;;;;;;5064521;28;20072;-85
2021/06/08 11:48:00;;;;;;;10.38;8.93;;;28.10;72.20;;;;;;5055065;28;20047;-84
2021/06/08 11:50:41;;;;;;;13.10;9.18;;;28.20;69.20;;;;;;5051652;28;20041;-86
2021/06/08 11:53:12;;;;;;;13.27;10.57;;;28.20;70.30;;;;;;5031752;28;20029;-84
2021/06/08 11:55:37;;;;;;;14.93;11.85;;;28.20;71.80;;;;;;5031453;28;20651;-85
2021/06/08 11:58:04;;;;;;;15.95;11.57;;;28.10;70.10;;;;;;5032950;28;20083;-84
2021/06/08 12:00:53;;;;;;;15.77;11.43;;;28.10;72.80;;;;;;5032582;28;20440;-83
2021/06/08 12:03:35;;;;;;;13.10;10.60;;;28.10;70.80;;;;;;5033223;28;20045;-83
2021/06/08 12:06:03;;;;;;;13.63;10.43;;;28.00;71.90;;;;;;5077173;28;20049;-83
2021/06/08 12:08:31;;;;;;;14.60;11.13;;;27.90;73.00;;;;;;5065744;28;20053;-84
2021/06/08 12:10:58;;;;;;;12.95;9.82;;;28.00;70.30;;;;;;5084458;28;20040;-84
2021/06/08 12:13:32;;;;;;;9.30;7.22;;;28.10;71.40;;;;;;5052318;28;20396;-84
2021/06/08 12:15:58;;;;;;;11.70;8.80;;;28.20;69.00;;;;;;5056052;28;20040;-84
2021/06/08 12:18:34;;;;;;;14.48;9.23;;;28.20;68.60;;;;;;5056359;28;20132;-83
2021/06/08 12:21:00;;;;;;;10.13;8.43;;;28.30;69.40;;;;;;5067623;28;20360;-84
2021/06/08 12:23:31;;;;;;;11.15;8.73;;;28.20;68.60;;;;;;5058518;28;20069;-85
2021/06/08 12:26:10;;;;;;;9.85;7.68;;;28.30;68.10;;;;;;5054934;28;20033;-84
2021/06/08 12:28:37;;;;;;;10.50;7.88;;;28.20;68.60;;;;;;5054845;28;20045;-84
2021/06/08 12:31:29;;;;;;;7.13;6.20;;;28.20;70.00;;;;;;5055593;28;20041;-83
2021/06/08 12:33:56;;;;;;;6.88;5.82;;;28.20;66.50;;;;;;5052992;28;20064;-84
2021/06/08 12:36:23;;;;;;;7.85;6.45;;;28.20;68.40;;;;;;5054653;28;20045;-85
2021/06/08 12:38:54;;;;;;;7.10;5.55;;;28.20;65.90;;;;;;5054330;28;20278;-84
2021/06/08 12:41:25;;;;;;;7.93;6.10;;;28.20;68.30;;;;;;5055630;28;20048;-84
2021/06/08 12:43:56;;;;;;;7.85;5.97;;;28.20;67.80;;;;;;5057453;28;20028;-85
2021/06/08 12:46:26;;;;;;;8.10;6.20;;;28.20;67.50;;;;;;5055081;28;20040;-85